createdAt,value
2018-07-04T00:01:24.611Z,8.23
2018-07-04T00:04:30.168Z,7.87
2018-07-04T00:07:35.207Z,8.35
2018-07-04T00:10:40.835Z,10.17
2018-07-04T00:13:46.113Z,9.00
2018-07-04T00:16:51.828Z,6.17
2018-07-04T00:19:57.397Z,6.47
2018-07-04T00:23:02.798Z,7.67
2018-07-04T00:26:08.276Z,8.67
2018-07-04T00:29:13.781Z,9.23
2018-07-04T00:32:19.257Z,10.47
2018-07-04T00:35:24.509Z,6.87
2018-07-04T00:38:29.797Z,8.33
2018-07-04T00:41:35.495Z,9.63
2018-07-04T00:44:41.199Z,9.70
2018-07-04T00:47:46.623Z,7.87
2018-07-04T00:50:54.989Z,7.60
2018-07-04T00:54:00.121Z,6.57
2018-07-04T00:57:05.260Z,6.63
2018-07-04T01:00:10.774Z,8.27
2018-07-04T01:03:16.320Z,9.27
2018-07-04T01:06:21.595Z,6.70
2018-07-04T01:09:26.777Z,10.23
2018-07-04T01:12:40.418Z,8.20
2018-07-04T01:15:43.655Z,9.60
2018-07-04T01:18:48.844Z,8.80
2018-07-04T01:21:54.541Z,11.17
2018-07-04T01:25:00.261Z,8.23
2018-07-04T01:28:05.964Z,7.47
2018-07-04T01:31:11.274Z,11.63
2018-07-04T01:34:16.535Z,8.03
2018-07-04T01:37:22.054Z,11.90
2018-07-04T01:40:27.519Z,10.63
2018-07-04T01:43:32.547Z,10.53
2018-07-04T01:46:38.370Z,9.50
2018-07-04T01:49:43.988Z,12.27
2018-07-04T01:52:51.624Z,10.98
2018-07-04T01:55:54.774Z,12.07
2018-07-04T01:58:59.916Z,12.47
2018-07-04T02:02:05.291Z,10.30
2018-07-04T02:05:10.752Z,10.67
2018-07-04T02:08:15.941Z,8.73
2018-07-04T02:11:21.523Z,8.40
2018-07-04T02:14:26.875Z,11.77
2018-07-04T02:17:32.574Z,11.73
2018-07-04T02:20:38.365Z,10.23
2018-07-04T02:23:43.996Z,12.17
2018-07-04T02:26:49.289Z,13.10
2018-07-04T02:29:54.492Z,14.37
2018-07-04T02:33:00.125Z,8.83
2018-07-04T02:36:05.561Z,9.50
2018-07-04T02:39:12.669Z,10.03
2018-07-04T02:42:16.476Z,14.67
2018-07-04T02:45:22.084Z,10.97
2018-07-04T02:48:27.287Z,10.93
2018-07-04T02:51:32.707Z,11.40
2018-07-04T02:54:38.284Z,11.30
2018-07-04T02:57:43.581Z,9.03
2018-07-04T03:00:51.938Z,10.83
2018-07-04T03:03:57.226Z,10.33
2018-07-04T03:07:02.662Z,10.03
2018-07-04T03:10:08.246Z,11.57
2018-07-04T03:13:13.590Z,12.40
2018-07-04T03:16:19.242Z,13.10
2018-07-04T03:19:24.449Z,12.95
2018-07-04T03:22:30.039Z,12.57
2018-07-04T03:25:37.846Z,10.30
2018-07-04T03:28:46.017Z,10.03
2018-07-04T03:31:48.370Z,10.87
2018-07-04T03:34:53.696Z,15.00
2018-07-04T03:37:59.119Z,13.50
2018-07-04T03:41:04.693Z,11.30
2018-07-04T03:44:10.458Z,12.03
2018-07-04T03:47:15.837Z,12.10
2018-07-04T03:50:21.176Z,14.93
2018-07-04T03:53:26.544Z,11.30
2018-07-04T03:56:32.017Z,14.73
2018-07-04T03:59:37.323Z,11.33
2018-07-04T04:02:42.736Z,17.07
2018-07-04T04:05:48.614Z,14.20
2018-07-04T04:08:53.974Z,13.70
2018-07-04T04:11:59.729Z,12.87
2018-07-04T04:15:07.254Z,11.93
2018-07-04T04:18:12.937Z,12.60
2018-07-04T04:21:18.196Z,14.47
2018-07-04T04:24:23.457Z,13.57
2018-07-04T04:27:28.709Z,12.37
2018-07-04T04:30:34.064Z,14.60
2018-07-04T04:33:39.665Z,12.07
2018-07-04T04:36:45.077Z,12.97
2018-07-04T04:39:50.761Z,11.47
2018-07-04T04:42:56.417Z,13.80
2018-07-04T04:46:02.131Z,12.23
2018-07-04T04:49:07.730Z,13.83
2018-07-04T04:52:13.264Z,11.80
2018-07-04T04:55:18.692Z,15.27
2018-07-04T04:58:24.168Z,11.47
2018-07-04T05:01:29.554Z,14.07
2018-07-04T05:04:35.182Z,12.30
2018-07-04T05:07:40.937Z,15.57
2018-07-04T05:10:46.455Z,17.33
2018-07-04T05:13:52.154Z,13.27
2018-07-04T05:16:57.545Z,14.80
2018-07-04T05:20:02.887Z,15.23
2018-07-04T05:23:08.074Z,15.10
2018-07-04T05:26:13.386Z,14.63
2018-07-04T05:29:18.678Z,12.47
2018-07-04T05:32:23.906Z,15.98
2018-07-04T05:35:29.466Z,18.27
2018-07-04T05:38:34.695Z,15.37
2018-07-04T05:41:40.071Z,12.57
2018-07-04T05:44:45.421Z,15.43
2018-07-04T05:47:50.658Z,18.47
2018-07-04T05:50:55.865Z,17.90
2018-07-04T05:54:01.333Z,14.53
2018-07-04T05:57:06.996Z,20.10
2018-07-04T06:00:14.880Z,13.97
2018-07-04T06:03:20.289Z,14.73
2018-07-04T06:06:25.960Z,16.50
2018-07-04T06:09:31.527Z,14.30
2018-07-04T06:12:36.848Z,16.53
2018-07-04T06:15:42.235Z,12.93
2018-07-04T06:18:47.864Z,12.23
2018-07-04T06:21:53.197Z,18.57
2018-07-04T06:24:58.722Z,22.50
2018-07-04T06:28:04.479Z,16.93
2018-07-04T06:31:10.262Z,15.53
2018-07-04T06:34:15.520Z,15.50
2018-07-04T06:37:20.620Z,16.40
2018-07-04T06:39:50.464Z,10.67
2018-07-04T06:42:18.270Z,14.70
2018-07-04T06:44:46.241Z,11.27
2018-07-04T06:47:14.043Z,11.30
2018-07-04T06:49:41.871Z,11.93
2018-07-04T06:52:09.734Z,15.32
2018-07-04T06:54:37.620Z,12.80
2018-07-04T06:57:07.503Z,8.93
2018-07-04T06:59:33.532Z,10.15
2018-07-04T07:02:09.984Z,11.03
2018-07-04T07:05:15.603Z,10.05
2018-07-04T07:08:21.249Z,12.85
2018-07-04T07:11:26.793Z,14.45
2018-07-04T07:14:32.579Z,9.43
2018-07-04T07:17:37.736Z,11.25
2018-07-04T07:20:43.047Z,10.48
2018-07-04T07:23:48.548Z,9.73
2018-07-04T07:26:54.124Z,10.90
2018-07-04T07:29:59.592Z,8.10
2018-07-04T07:33:05.086Z,11.15
2018-07-04T07:36:10.772Z,7.85
2018-07-04T07:39:18.870Z,8.85
2018-07-04T07:42:24.272Z,9.63
2018-07-04T07:45:29.543Z,8.18
2018-07-04T07:48:35.000Z,7.55
2018-07-04T07:51:40.278Z,10.88
2018-07-04T07:54:45.808Z,10.80
2018-07-04T07:57:51.348Z,7.87
2018-07-04T08:00:56.885Z,9.65
2018-07-04T08:04:02.152Z,8.88
2018-07-04T08:07:07.621Z,8.25
2018-07-04T08:10:14.813Z,9.90
2018-07-04T08:13:20.297Z,7.53
2018-07-04T08:16:25.843Z,7.00
2018-07-04T08:19:31.123Z,7.78
2018-07-04T08:22:36.608Z,7.90
2018-07-04T08:25:41.756Z,6.92
2018-07-04T08:28:47.080Z,6.45
2018-07-04T08:31:52.871Z,9.08
2018-07-04T08:34:58.297Z,5.55
2018-07-04T08:38:05.757Z,7.95
2018-07-04T08:41:11.892Z,3.60
2018-07-04T08:44:17.485Z,6.20
2018-07-04T08:47:22.834Z,6.42
2018-07-04T08:50:28.053Z,5.55
2018-07-04T08:53:33.248Z,3.17
2018-07-04T08:56:38.846Z,4.10
2018-07-04T08:59:25.361Z,6.47
2018-07-04T09:02:32.681Z,5.08
2018-07-04T09:05:37.957Z,4.33
2018-07-04T09:08:43.333Z,5.33
2018-07-04T09:11:48.613Z,5.92
2018-07-04T09:14:53.680Z,6.10
2018-07-04T09:17:59.234Z,5.78
2018-07-04T09:21:04.456Z,3.75
2018-07-04T09:24:09.751Z,8.05
2018-07-04T09:27:15.496Z,6.65
2018-07-04T09:30:20.750Z,6.12
2018-07-04T09:33:26.103Z,7.37
2018-07-04T09:36:31.599Z,4.12
2018-07-04T09:39:36.721Z,9.03
2018-07-04T09:42:41.978Z,6.08
2018-07-04T09:45:47.491Z,6.35
2018-07-04T09:48:53.004Z,7.25
2018-07-04T09:51:58.444Z,6.53
2018-07-04T09:55:03.762Z,6.87
2018-07-04T09:58:08.842Z,5.20
2018-07-04T10:01:25.053Z,9.15
2018-07-04T10:04:30.920Z,5.55
2018-07-04T10:07:36.450Z,5.30
2018-07-04T10:10:41.834Z,4.08
2018-07-04T10:13:47.360Z,5.58
2018-07-04T10:16:52.896Z,6.03
2018-07-04T10:19:58.563Z,4.90
2018-07-04T10:23:04.125Z,6.80
2018-07-04T10:26:09.533Z,5.40
2018-07-04T10:29:15.026Z,4.87
2018-07-04T10:32:20.814Z,5.70
2018-07-04T10:35:39.706Z,6.83
2018-07-04T10:46:11.705Z,6.90
2018-07-04T10:49:49.679Z,5.58
2018-07-04T10:52:56.964Z,4.70
2018-07-04T10:55:21.013Z,4.67
2018-07-04T10:56:18.983Z,5.95
2018-07-04T10:59:29.561Z,4.28
2018-07-04T11:02:58.155Z,4.53
2018-07-04T11:10:02.514Z,11.03
2018-07-04T11:13:04.371Z,6.62
2018-07-04T11:13:11.339Z,6.03
2018-07-04T11:16:30.446Z,8.35
2018-07-04T11:23:27.867Z,6.80
2018-07-04T11:26:45.663Z,6.65
2018-07-04T11:30:28.302Z,6.65
2018-07-04T11:34:15.174Z,5.40
2018-07-04T11:41:02.868Z,4.08
2018-07-04T11:43:56.904Z,5.55
2018-07-04T11:46:49.922Z,8.23
2018-07-04T11:49:36.066Z,5.40
2018-07-04T11:52:37.677Z,4.50
2018-07-04T11:55:23.389Z,3.85
2018-07-04T11:57:58.724Z,5.12
2018-07-04T12:03:38.944Z,6.87
2018-07-04T12:16:08.873Z,7.20
2018-07-04T12:19:00.281Z,3.90
2018-07-04T12:25:48.190Z,5.28
2018-07-04T12:27:53.978Z,7.33
2018-07-04T12:31:03.232Z,5.92
2018-07-04T12:34:07.425Z,5.65
2018-07-04T12:40:19.036Z,4.10
2018-07-04T12:43:00.909Z,6.92
2018-07-04T12:50:28.665Z,5.92
2018-07-04T12:55:48.724Z,5.53
2018-07-04T12:59:22.784Z,5.72
2018-07-04T13:06:22.561Z,5.95
2018-07-04T13:07:05.390Z,9.15
2018-07-04T13:17:40.768Z,10.53
2018-07-04T13:20:53.497Z,6.08
2018-07-04T13:23:53.539Z,7.40
2018-07-04T13:27:01.279Z,5.03
2018-07-04T13:33:54.349Z,12.80
2018-07-04T13:40:41.614Z,5.95
2018-07-04T13:47:48.799Z,11.73
2018-07-04T13:51:17.471Z,5.90
2018-07-04T13:59:45.326Z,5.85
2018-07-04T14:01:22.676Z,4.75
2018-07-04T14:04:50.190Z,6.47
2018-07-04T14:08:50.531Z,7.05
2018-07-04T14:12:10.828Z,7.87
2018-07-04T14:15:50.843Z,6.90
2018-07-04T14:22:36.271Z,7.33
2018-07-04T14:33:27.250Z,5.75
2018-07-04T14:36:34.336Z,4.85
2018-07-04T14:40:16.406Z,4.83
2018-07-04T14:43:44.978Z,5.37
2018-07-04T14:47:06.210Z,5.33
2018-07-04T14:53:57.171Z,7.72
2018-07-04T14:57:27.760Z,6.28
2018-07-04T15:04:32.632Z,5.12
2018-07-04T15:07:50.397Z,5.75
2018-07-04T15:11:05.867Z,5.87
2018-07-04T15:14:36.014Z,4.95
2018-07-04T15:17:57.084Z,5.80
2018-07-04T15:21:14.292Z,4.35
2018-07-04T15:24:22.115Z,5.90
2018-07-04T15:27:44.056Z,8.08
2018-07-04T15:31:27.286Z,4.80
2018-07-04T15:38:27.957Z,6.37
2018-07-04T15:41:52.780Z,5.45
2018-07-04T15:45:08.492Z,7.67
2018-07-04T15:48:15.273Z,7.00
2018-07-04T15:51:57.387Z,6.15
2018-07-04T15:58:31.159Z,4.22
2018-07-04T16:01:52.340Z,6.78
2018-07-04T16:05:24.615Z,7.20
2018-07-04T16:08:22.391Z,7.50
2018-07-04T16:11:29.759Z,6.03
2018-07-04T16:21:46.464Z,6.65
2018-07-04T16:25:18.799Z,7.78
2018-07-04T16:28:40.675Z,6.70
2018-07-04T16:32:06.811Z,5.33
2018-07-04T16:38:44.279Z,5.42
2018-07-04T16:41:51.649Z,5.03
2018-07-04T16:44:58.091Z,4.78
2018-07-04T16:48:06.839Z,4.50
2018-07-04T16:52:22.913Z,3.08
2018-07-04T16:54:40.056Z,4.15
2018-07-04T16:57:58.432Z,5.53
2018-07-04T17:01:42.703Z,6.08
2018-07-04T17:04:54.279Z,5.92
2018-07-04T17:08:34.258Z,5.25
2018-07-04T17:12:18.287Z,3.95
2018-07-04T17:15:39.977Z,5.78
2018-07-04T17:22:30.162Z,4.22
2018-07-04T17:25:57.758Z,5.55
2018-07-04T17:33:01.744Z,4.33
2018-07-04T17:37:21.439Z,5.37
2018-07-04T17:40:12.171Z,4.78
2018-07-04T17:43:29.270Z,4.72
2018-07-04T17:46:41.012Z,4.12
2018-07-04T17:49:59.591Z,3.35
2018-07-04T17:56:54.546Z,7.50
2018-07-04T18:00:18.112Z,2.37
2018-07-04T18:03:36.163Z,5.25
2018-07-04T18:07:25.127Z,3.17
2018-07-04T18:10:41.612Z,6.80
2018-07-04T18:13:52.045Z,6.97
2018-07-04T18:17:28.380Z,4.03
2018-07-04T18:20:46.338Z,5.95
2018-07-04T18:23:55.419Z,3.08
2018-07-04T18:27:05.083Z,4.83
2018-07-04T18:30:27.753Z,4.35
2018-07-04T18:33:53.889Z,2.65
2018-07-04T18:48:03.809Z,4.15
2018-07-04T18:51:19.593Z,2.70
2018-07-04T18:54:51.685Z,2.45
2018-07-04T19:01:26.320Z,6.45
2018-07-04T19:04:59.045Z,5.53
2018-07-04T19:08:05.644Z,4.15
2018-07-04T19:11:18.129Z,3.47
2018-07-04T19:18:01.661Z,2.90
2018-07-04T19:21:16.793Z,3.00
2018-07-04T19:24:55.281Z,4.37
2018-07-04T19:27:54.353Z,5.33
2018-07-04T19:31:14.947Z,3.05
2018-07-04T19:34:44.692Z,3.03
2018-07-04T19:38:16.904Z,5.53
2018-07-04T19:41:38.574Z,3.17
2018-07-04T19:45:00.979Z,2.27
2018-07-04T19:48:01.468Z,2.80
2018-07-04T19:51:07.335Z,2.60
2018-07-04T19:54:13.087Z,2.77
2018-07-04T19:57:18.518Z,3.07
2018-07-04T20:00:23.703Z,2.90
2018-07-04T20:03:29.067Z,2.73
2018-07-04T20:06:34.348Z,2.33
2018-07-04T20:09:39.658Z,3.07
2018-07-04T20:12:45.175Z,2.37
2018-07-04T20:15:50.328Z,4.63
2018-07-04T20:18:55.829Z,5.20
2018-07-04T20:22:01.429Z,2.27
2018-07-04T20:25:07.116Z,3.30
2018-07-04T20:28:12.633Z,3.17
2018-07-04T20:31:18.208Z,4.60
2018-07-04T20:34:23.308Z,2.73
2018-07-04T20:37:28.482Z,3.13
2018-07-04T20:40:33.882Z,4.83
2018-07-04T20:43:39.559Z,3.07
2018-07-04T20:46:45.127Z,2.73
2018-07-04T20:49:50.884Z,2.50
2018-07-04T20:52:56.144Z,3.13
2018-07-04T20:56:01.452Z,3.50
2018-07-04T20:59:06.840Z,4.47
2018-07-04T21:02:12.208Z,4.67
2018-07-04T21:05:17.686Z,2.37
2018-07-04T21:08:23.478Z,4.40
2018-07-04T21:11:29.017Z,3.10
2018-07-04T21:14:37.468Z,4.13
2018-07-04T21:17:40.058Z,2.73
2018-07-04T21:20:45.538Z,2.87
2018-07-04T21:23:51.198Z,3.60
2018-07-04T21:26:56.532Z,5.17
2018-07-04T21:30:02.067Z,2.63
2018-07-04T21:33:07.292Z,6.00
2018-07-04T21:36:12.717Z,3.13
2018-07-04T21:39:18.198Z,2.77
2018-07-04T21:42:23.846Z,5.07
2018-07-04T21:45:29.505Z,4.37
2018-07-04T21:48:34.878Z,3.23
2018-07-04T21:51:42.611Z,5.53
2018-07-04T21:54:48.172Z,3.37
2018-07-04T21:57:53.550Z,3.47
2018-07-04T22:00:58.952Z,3.10
2018-07-04T22:04:04.621Z,5.83
2018-07-04T22:07:10.034Z,4.03
2018-07-04T22:10:15.486Z,3.33
2018-07-04T22:13:20.864Z,2.73
2018-07-04T22:16:26.265Z,3.77
2018-07-04T22:19:31.387Z,6.60
2018-07-04T22:22:37.013Z,3.30
2018-07-04T22:25:42.540Z,2.83
2018-07-04T22:28:47.912Z,3.23
2018-07-04T22:31:53.167Z,3.10
2018-07-04T22:34:58.638Z,3.27
2018-07-04T22:38:04.235Z,5.00
2018-07-04T22:41:10.065Z,5.13
2018-07-04T22:44:15.384Z,3.97
2018-07-04T22:47:20.759Z,4.73
2018-07-04T22:50:35.118Z,3.03
2018-07-04T22:53:40.699Z,3.13
2018-07-04T22:56:46.304Z,3.80
2018-07-04T22:59:51.675Z,3.37
2018-07-04T23:02:56.748Z,4.05
2018-07-04T23:06:02.130Z,5.70
2018-07-04T23:09:07.676Z,3.10
2018-07-04T23:12:12.959Z,3.83
2018-07-04T23:15:18.613Z,3.58
2018-07-04T23:18:23.915Z,4.20
2018-07-04T23:21:29.516Z,3.23
2018-07-04T23:24:37.628Z,3.40
2018-07-04T23:27:40.299Z,3.00
2018-07-04T23:30:45.746Z,6.47
2018-07-04T23:33:51.279Z,4.33
2018-07-04T23:36:56.648Z,3.60
2018-07-04T23:40:02.359Z,3.40
2018-07-04T23:43:07.783Z,3.83
2018-07-04T23:46:13.561Z,3.17
2018-07-04T23:49:18.872Z,3.33
2018-07-04T23:52:24.331Z,3.37
2018-07-04T23:55:29.643Z,3.80
2018-07-04T23:58:34.942Z,3.73
